SHT5R EGAC-EGLL
Flight info
| Callsign | SHT5R |
|---|---|
| Flight time | N/A |
| Altitude | 37000 |
| Route | DUFFY L10 RINGA Q39 ETIGA DCT INKOB Q39 NOMSU UQ4 WAL UY53 NUGRA |
| Aircraft | A319/M-SDE3FGIJ1KRWXY/LB1 |
Departure
| Time | 2026-05-01 11:10 |
|---|---|
| Airport | George Best Belfast City Airport (EGAC) |
Arrival
| Time | N/A |
|---|---|
| Airport | London Heathrow Airport (EGLL) |
| Time | Latitude | Longitude | Altitude | Speed | Heading |
|---|---|---|---|---|---|
| 2026-05-01 10:55 | 54.61502 | -5.87147 | 21 ft | 0 kts | 156° |
| 2026-05-01 11:03 | 54.61506 | -5.87150 | 22 ft | 3 kts | 155° |
| 2026-05-01 11:03 | 54.61529 | -5.87172 | 24 ft | 4 kts | 134° |
| 2026-05-01 11:04 | 54.61540 | -5.87204 | 22 ft | 4 kts | 72° |
| 2026-05-01 11:04 | 54.61534 | -5.87220 | 23 ft | 1 kts | 35° |
| 2026-05-01 11:04 | 54.61533 | -5.87221 | 23 ft | 0 kts | 35° |
| 2026-05-01 11:06 | 54.61550 | -5.87201 | 25 ft | 5 kts | 35° |
| 2026-05-01 11:06 | 54.61594 | -5.87148 | 23 ft | 10 kts | 34° |
| 2026-05-01 11:07 | 54.61743 | -5.86992 | 21 ft | 15 kts | 1° |
| 2026-05-01 11:07 | 54.61818 | -5.87131 | 18 ft | 14 kts | 303° |
| 2026-05-01 11:07 | 54.61897 | -5.87148 | 20 ft | 14 kts | 34° |
| 2026-05-01 11:07 | 54.61991 | -5.87035 | 16 ft | 21 kts | 35° |
| 2026-05-01 11:08 | 54.62135 | -5.86861 | 16 ft | 29 kts | 35° |
| 2026-05-01 11:08 | 54.62304 | -5.86661 | 20 ft | 30 kts | 34° |
| 2026-05-01 11:08 | 54.62455 | -5.86473 | 20 ft | 12 kts | 181° |
| 2026-05-01 11:09 | 54.62373 | -5.86577 | 22 ft | 27 kts | 216° |
| 2026-05-01 11:09 | 54.61995 | -5.87029 | 16 ft | 104 kts | 215° |
| 2026-05-01 11:09 | 54.61214 | -5.87949 | 133 ft | 156 kts | 212° |
| 2026-05-01 11:10 | 54.59423 | -5.90097 | 1654 ft | 159 kts | 207° |
| 2026-05-01 11:10 | 54.58295 | -5.90480 | 2006 ft | 179 kts | 172° |
| 2026-05-01 11:10 | 54.57053 | -5.89776 | 2347 ft | 204 kts | 160° |
| 2026-05-01 11:10 | 54.55647 | -5.88849 | 2833 ft | 229 kts | 160° |
| 2026-05-01 11:11 | 54.54093 | -5.87824 | 3540 ft | 246 kts | 160° |
| 2026-05-01 11:11 | 54.52480 | -5.86755 | 4568 ft | 250 kts | 159° |
| 2026-05-01 11:11 | 54.51053 | -5.85011 | 5594 ft | 258 kts | 133° |
| 2026-05-01 11:11 | 54.50002 | -5.82484 | 6621 ft | 262 kts | 129° |
| 2026-05-01 11:12 | 54.48967 | -5.79876 | 7578 ft | 264 kts | 129° |
| 2026-05-01 11:12 | 54.47928 | -5.77255 | 8532 ft | 267 kts | 129° |
| 2026-05-01 11:12 | 54.46886 | -5.74634 | 9453 ft | 270 kts | 129° |
| 2026-05-01 11:12 | 54.45803 | -5.71919 | 10322 ft | 275 kts | 129° |
| 2026-05-01 11:13 | 54.44662 | -5.69085 | 10632 ft | 299 kts | 129° |
| 2026-05-01 11:13 | 54.43434 | -5.66054 | 10990 ft | 317 kts | 129° |
| 2026-05-01 11:13 | 54.42593 | -5.63974 | 11411 ft | 322 kts | 129° |
| 2026-05-01 11:13 | 54.41312 | -5.60797 | 12143 ft | 326 kts | 129° |
| 2026-05-01 11:14 | 54.40015 | -5.57578 | 12888 ft | 330 kts | 129° |
| 2026-05-01 11:14 | 54.38701 | -5.54317 | 13644 ft | 333 kts | 129° |
| 2026-05-01 11:14 | 54.37380 | -5.51040 | 14327 ft | 337 kts | 129° |
| 2026-05-01 11:14 | 54.36037 | -5.47713 | 14985 ft | 340 kts | 129° |
| 2026-05-01 11:15 | 54.34680 | -5.44365 | 15638 ft | 343 kts | 129° |
| 2026-05-01 11:15 | 54.33313 | -5.41001 | 16284 ft | 346 kts | 129° |
| 2026-05-01 11:15 | 54.31927 | -5.37595 | 16932 ft | 349 kts | 129° |
| 2026-05-01 11:15 | 54.30546 | -5.34210 | 17567 ft | 353 kts | 129° |
| 2026-05-01 11:16 | 54.29111 | -5.30701 | 18151 ft | 358 kts | 129° |
| 2026-05-01 11:16 | 54.27668 | -5.27190 | 18714 ft | 362 kts | 129° |
| 2026-05-01 11:16 | 54.26151 | -5.23759 | 19274 ft | 364 kts | 132° |
| 2026-05-01 11:16 | 54.24551 | -5.20380 | 19856 ft | 366 kts | 133° |
| 2026-05-01 11:17 | 54.22910 | -5.17033 | 20437 ft | 368 kts | 134° |
| 2026-05-01 11:17 | 54.21246 | -5.13673 | 21020 ft | 371 kts | 134° |
| 2026-05-01 11:17 | 54.19583 | -5.10303 | 21590 ft | 374 kts | 134° |
| 2026-05-01 11:17 | 54.17932 | -5.06925 | 22149 ft | 376 kts | 133° |
| 2026-05-01 11:18 | 54.16259 | -5.03477 | 22684 ft | 379 kts | 133° |
| 2026-05-01 11:18 | 54.14572 | -4.99988 | 23212 ft | 382 kts | 133° |
| 2026-05-01 11:18 | 54.12881 | -4.96491 | 23741 ft | 384 kts | 133° |
| 2026-05-01 11:18 | 54.11176 | -4.92968 | 24166 ft | 386 kts | 133° |
| 2026-05-01 11:19 | 54.09455 | -4.89418 | 24594 ft | 389 kts | 133° |